sensor_id;sensor_type;location;lat;lon;timestamp;pressure;altitude;pressure_sealevel;temperature;humidity
56402;BME280;42299;35.160;26.100;2022-12-18T00:00:44;101927.44;;;16.90;100.00
56402;BME280;42299;35.160;26.100;2022-12-18T00:02:07;101930.06;;;16.89;100.00
56402;BME280;42299;35.160;26.100;2022-12-18T00:03:33;101930.97;;;16.89;100.00
56402;BME280;42299;35.160;26.100;2022-12-18T00:04:55;101937.19;;;16.90;100.00
56402;BME280;42299;35.160;26.100;2022-12-18T00:06:22;101931.88;;;16.90;100.00
56402;BME280;42299;35.160;26.100;2022-12-18T00:07:45;101932.75;;;16.90;100.00
56402;BME280;42299;35.160;26.100;2022-12-18T00:09:08;101934.56;;;16.91;100.00
56402;BME280;42299;35.160;26.100;2022-12-18T00:10:29;101934.56;;;16.91;100.00
56402;BME280;42299;35.160;26.100;2022-12-18T00:11:52;101929.25;;;16.93;100.00
56402;BME280;42299;35.160;26.100;2022-12-18T00:13:14;101940.78;;;16.95;100.00
56402;BME280;42299;35.160;26.100;2022-12-18T00:14:35;101934.59;;;16.96;100.00
56402;BME280;42299;35.160;26.100;2022-12-18T00:16:01;101937.28;;;16.97;100.00
56402;BME280;42299;35.160;26.100;2022-12-18T00:17:23;101947.94;;;16.97;100.00
56402;BME280;42299;35.160;26.100;2022-12-18T00:18:45;101938.16;;;16.96;100.00
56402;BME280;42299;35.160;26.100;2022-12-18T00:20:08;101935.47;;;16.95;100.00
56402;BME280;42299;35.160;26.100;2022-12-18T00:21:31;101942.56;;;16.93;100.00
56402;BME280;42299;35.160;26.100;2022-12-18T00:22:55;101939.84;;;16.88;100.00
56402;BME280;42299;35.160;26.100;2022-12-18T00:24:17;101943.38;;;16.87;100.00
56402;BME280;42299;35.160;26.100;2022-12-18T00:25:40;101938.94;;;16.85;100.00
56402;BME280;42299;35.160;26.100;2022-12-18T00:27:02;101932.69;;;16.83;100.00
56402;BME280;42299;35.160;26.100;2022-12-18T00:28:25;101939.78;;;16.82;100.00
56402;BME280;42299;35.160;26.100;2022-12-18T00:29:47;101931.78;;;16.81;100.00
56402;BME280;42299;35.160;26.100;2022-12-18T00:31:11;101935.34;;;16.80;100.00
56402;BME280;42299;35.160;26.100;2022-12-18T00:32:33;101935.34;;;16.80;100.00
56402;BME280;42299;35.160;26.100;2022-12-18T00:33:57;101944.22;;;16.79;100.00
56402;BME280;42299;35.160;26.100;2022-12-18T00:35:18;101938.88;;;16.79;100.00
56402;BME280;42299;35.160;26.100;2022-12-18T00:36:41;101943.31;;;16.78;100.00
56402;BME280;42299;35.160;26.100;2022-12-18T00:38:05;101946.91;;;16.79;100.00
56402;BME280;42299;35.160;26.100;2022-12-18T00:39:28;101940.63;;;16.77;100.00
56402;BME280;42299;35.160;26.100;2022-12-18T00:40:49;101950.38;;;16.74;100.00
56402;BME280;42299;35.160;26.100;2022-12-18T00:42:11;101944.16;;;16.72;100.00
56402;BME280;42299;35.160;26.100;2022-12-18T00:43:51;101956.59;;;16.70;100.00
56402;BME280;42299;35.160;26.100;2022-12-18T00:45:12;101951.25;;;16.70;100.00
56402;BME280;42299;35.160;26.100;2022-12-18T00:46:35;101948.56;;;16.69;100.00
56402;BME280;42299;35.160;26.100;2022-12-18T00:47:57;101946.78;;;16.68;100.00
56402;BME280;42299;35.160;26.100;2022-12-18T00:49:19;101951.22;;;16.67;100.00
56402;BME280;42299;35.160;26.100;2022-12-18T00:50:42;101949.44;;;16.66;100.00
56402;BME280;42299;35.160;26.100;2022-12-18T00:52:05;101948.53;;;16.64;100.00
56402;BME280;42299;35.160;26.100;2022-12-18T00:53:27;101947.59;;;16.62;100.00
56402;BME280;42299;35.160;26.100;2022-12-18T00:54:50;101944.06;;;16.60;100.00
56402;BME280;42299;35.160;26.100;2022-12-18T00:56:13;101951.09;;;16.58;100.00
56402;BME280;42299;35.160;26.100;2022-12-18T00:57:34;101950.22;;;16.58;100.00
56402;BME280;42299;35.160;26.100;2022-12-18T00:58:58;101951.06;;;16.55;100.00
56402;BME280;42299;35.160;26.100;2022-12-18T01:00:19;101948.38;;;16.55;100.00
56402;BME280;42299;35.160;26.100;2022-12-18T01:01:42;101948.38;;;16.52;100.00
56402;BME280;42299;35.160;26.100;2022-12-18T01:03:04;101943.00;;;16.49;100.00
56402;BME280;42299;35.160;26.100;2022-12-18T01:04:26;101937.63;;;16.48;100.00
56402;BME280;42299;35.160;26.100;2022-12-18T01:05:48;101943.84;;;16.45;100.00
56402;BME280;42299;35.160;26.100;2022-12-18T01:07:10;101941.19;;;16.45;100.00
56402;BME280;42299;35.160;26.100;2022-12-18T01:08:35;101942.94;;;16.43;100.00
56402;BME280;42299;35.160;26.100;2022-12-18T01:09:56;101930.50;;;16.44;100.00
56402;BME280;42299;35.160;26.100;2022-12-18T01:11:21;101934.94;;;16.43;100.00
56402;BME280;42299;35.160;26.100;2022-12-18T01:12:42;101934.94;;;16.40;100.00
56402;BME280;42299;35.160;26.100;2022-12-18T01:14:05;101933.13;;;16.39;100.00
56402;BME280;42299;35.160;26.100;2022-12-18T01:15:26;101935.78;;;16.38;100.00
56402;BME280;42299;35.160;26.100;2022-12-18T01:16:48;101939.31;;;16.37;100.00
56402;BME280;42299;35.160;26.100;2022-12-18T01:18:10;101934.88;;;16.37;100.00
56402;BME280;42299;35.160;26.100;2022-12-18T01:19:32;101939.31;;;16.37;100.00
56402;BME280;42299;35.160;26.100;2022-12-18T01:20:55;101934.84;;;16.35;100.00
56402;BME280;42299;35.160;26.100;2022-12-18T01:22:16;101937.53;;;16.35;100.00
56402;BME280;42299;35.160;26.100;2022-12-18T01:23:41;101933.97;;;16.35;100.00
56402;BME280;42299;35.160;26.100;2022-12-18T01:25:05;101932.19;;;16.32;100.00
56402;BME280;42299;35.160;26.100;2022-12-18T01:26:28;101938.41;;;16.33;100.00
56402;BME280;42299;35.160;26.100;2022-12-18T01:27:51;101929.50;;;16.32;100.00
56402;BME280;42299;35.160;26.100;2022-12-18T01:29:13;101931.28;;;16.32;100.00
56402;BME280;42299;35.160;26.100;2022-12-18T01:30:36;101937.53;;;16.34;100.00
56402;BME280;42299;35.160;26.100;2022-12-18T01:31:57;101940.19;;;16.35;100.00
56402;BME280;42299;35.160;26.100;2022-12-18T01:33:20;101949.97;;;16.37;100.00
56402;BME280;42299;35.160;26.100;2022-12-18T01:34:43;101946.47;;;16.39;100.00
56402;BME280;42299;35.160;26.100;2022-12-18T01:36:06;101943.78;;;16.39;100.00
56402;BME280;42299;35.160;26.100;2022-12-18T01:37:28;101946.47;;;16.39;100.00
56402;BME280;42299;35.160;26.100;2022-12-18T01:38:53;101940.22;;;16.39;100.00
56402;BME280;42299;35.160;26.100;2022-12-18T01:40:16;101943.75;;;16.36;100.00
56402;BME280;42299;35.160;26.100;2022-12-18T01:41:38;101951.75;;;16.36;100.00
56402;BME280;42299;35.160;26.100;2022-12-18T01:43:18;101933.97;;;16.33;100.00
56402;BME280;42299;35.160;26.100;2022-12-18T01:45:05;101939.28;;;16.33;100.00
56402;BME280;42299;35.160;26.100;2022-12-18T01:46:28;101946.41;;;16.33;100.00
56402;BME280;42299;35.160;26.100;2022-12-18T01:47:52;101945.53;;;16.34;100.00
56402;BME280;42299;35.160;26.100;2022-12-18T01:49:14;101936.59;;;16.32;100.00
56402;BME280;42299;35.160;26.100;2022-12-18T01:50:38;101941.94;;;16.32;100.00
56402;BME280;42299;35.160;26.100;2022-12-18T01:52:02;101935.72;;;16.31;100.00
56402;BME280;42299;35.160;26.100;2022-12-18T01:53:23;101949.91;;;16.30;100.00
56402;BME280;42299;35.160;26.100;2022-12-18T01:54:49;101942.78;;;16.29;100.00
56402;BME280;42299;35.160;26.100;2022-12-18T01:56:15;101944.56;;;16.29;100.00
56402;BME280;42299;35.160;26.100;2022-12-18T01:57:40;101940.09;;;16.28;100.00
56402;BME280;42299;35.160;26.100;2022-12-18T01:59:03;101936.53;;;16.26;100.00
56402;BME280;42299;35.160;26.100;2022-12-18T02:00:28;101944.53;;;16.26;100.00
56402;BME280;42299;35.160;26.100;2022-12-18T02:01:49;101945.44;;;16.26;100.00
56402;BME280;42299;35.160;26.100;2022-12-18T02:03:12;101947.19;;;16.26;100.00
56402;BME280;42299;35.160;26.100;2022-12-18T02:04:34;101940.09;;;16.26;100.00
56402;BME280;42299;35.160;26.100;2022-12-18T02:06:00;101947.19;;;16.26;100.00
56402;BME280;42299;35.160;26.100;2022-12-18T02:07:31;101947.19;;;16.26;100.00
56402;BME280;42299;35.160;26.100;2022-12-18T02:09:03;101949.88;;;16.26;100.00
56402;BME280;42299;35.160;26.100;2022-12-18T02:10:33;101949.84;;;16.24;100.00
56402;BME280;42299;35.160;26.100;2022-12-18T02:12:03;101956.00;;;16.22;100.00
56402;BME280;42299;35.160;26.100;2022-12-18T02:13:32;101945.34;;;16.19;100.00
56402;BME280;42299;35.160;26.100;2022-12-18T02:15:02;101938.22;;;16.18;100.00
56402;BME280;42299;35.160;26.100;2022-12-18T02:16:39;101941.75;;;16.17;100.00
56402;BME280;42299;35.160;26.100;2022-12-18T02:18:07;101949.81;;;16.20;100.00
56402;BME280;42299;35.160;26.100;2022-12-18T02:19:46;101948.94;;;16.21;100.00
56402;BME280;42299;35.160;26.100;2022-12-18T02:21:15;101947.13;;;16.21;100.00
56402;BME280;42299;35.160;26.100;2022-12-18T02:22:52;101945.34;;;16.22;100.00
56402;BME280;42299;35.160;26.100;2022-12-18T02:24:23;101949.81;;;16.23;100.00
56402;BME280;42299;35.160;26.100;2022-12-18T02:26:02;101950.69;;;16.22;100.00
56402;BME280;42299;35.160;26.100;2022-12-18T02:27:27;101952.44;;;16.21;100.00
56402;BME280;42299;35.160;26.100;2022-12-18T02:28:54;101950.72;;;16.23;100.00
56402;BME280;42299;35.160;26.100;2022-12-18T02:30:18;101947.16;;;16.23;100.00
56402;BME280;42299;35.160;26.100;2022-12-18T02:31:43;101955.16;;;16.23;100.00
56402;BME280;42299;35.160;26.100;2022-12-18T02:33:09;101949.78;;;16.21;100.00
56402;BME280;42299;35.160;26.100;2022-12-18T02:34:36;101949.78;;;16.18;100.00
56402;BME280;42299;35.160;26.100;2022-12-18T02:36:00;101950.66;;;16.17;100.00
56402;BME280;42299;35.160;26.100;2022-12-18T02:37:25;101953.28;;;16.16;100.00
56402;BME280;42299;35.160;26.100;2022-12-18T02:38:50;101958.63;;;16.14;100.00
56402;BME280;42299;35.160;26.100;2022-12-18T02:40:17;101955.94;;;16.13;100.00
56402;BME280;42299;35.160;26.100;2022-12-18T02:41:41;101961.25;;;16.13;100.00
56402;BME280;42299;35.160;26.100;2022-12-18T02:43:07;101963.91;;;16.11;100.00
56402;BME280;42299;35.160;26.100;2022-12-18T02:44:29;101957.66;;;16.11;100.00
56402;BME280;42299;35.160;26.100;2022-12-18T02:45:54;101967.41;;;16.09;100.00
56402;BME280;42299;35.160;26.100;2022-12-18T02:47:18;101977.16;;;16.07;100.00
56402;BME280;42299;35.160;26.100;2022-12-18T02:48:42;101966.47;;;16.04;100.00
56402;BME280;42299;35.160;26.100;2022-12-18T02:50:10;101962.00;;;16.03;100.00
56402;BME280;42299;35.160;26.100;2022-12-18T02:51:46;101963.75;;;15.99;100.00
56402;BME280;42299;35.160;26.100;2022-12-18T02:53:16;101978.84;;;15.99;100.00
56402;BME280;42299;35.160;26.100;2022-12-18T02:54:57;101972.56;;;15.95;100.00
56402;BME280;42299;35.160;26.100;2022-12-18T02:56:26;101968.09;;;15.92;100.00
56402;BME280;42299;35.160;26.100;2022-12-18T02:57:55;101971.63;;;15.91;100.00
56402;BME280;42299;35.160;26.100;2022-12-18T02:59:27;101969.84;;;15.90;100.00
56402;BME280;42299;35.160;26.100;2022-12-18T03:00:58;101977.81;;;15.89;100.00
56402;BME280;42299;35.160;26.100;2022-12-18T03:02:28;101976.91;;;15.87;100.00
56402;BME280;42299;35.160;26.100;2022-12-18T03:03:56;101971.59;;;15.87;100.00
56402;BME280;42299;35.160;26.100;2022-12-18T03:05:23;101970.72;;;15.88;100.00
56402;BME280;42299;35.160;26.100;2022-12-18T03:06:50;101975.13;;;15.87;100.00
56402;BME280;42299;35.160;26.100;2022-12-18T03:08:15;101977.81;;;15.89;100.00
56402;BME280;42299;35.160;26.100;2022-12-18T03:09:43;101978.69;;;15.89;100.00
56402;BME280;42299;35.160;26.100;2022-12-18T03:11:10;101981.38;;;15.89;100.00
56402;BME280;42299;35.160;26.100;2022-12-18T03:12:36;101983.19;;;15.92;100.00
56402;BME280;42299;35.160;26.100;2022-12-18T03:14:00;101984.09;;;15.94;100.00
56402;BME280;42299;35.160;26.100;2022-12-18T03:15:27;101995.66;;;15.94;100.00
56402;BME280;42299;35.160;26.100;2022-12-18T03:17:03;101991.19;;;15.93;100.00
56402;BME280;42299;35.160;26.100;2022-12-18T03:18:30;101993.84;;;15.92;100.00
56402;BME280;42299;35.160;26.100;2022-12-18T03:19:56;101989.38;;;15.91;100.00
56402;BME280;42299;35.160;26.100;2022-12-18T03:21:21;101997.38;;;15.91;100.00
56402;BME280;42299;35.160;26.100;2022-12-18T03:22:49;101991.16;;;15.90;100.00
56402;BME280;42299;35.160;26.100;2022-12-18T03:24:14;101986.72;;;15.91;100.00
56402;BME280;42299;35.160;26.100;2022-12-18T03:25:39;101993.81;;;15.90;100.00
56402;BME280;42299;35.160;26.100;2022-12-18T03:27:06;101993.81;;;15.90;100.00
56402;BME280;42299;35.160;26.100;2022-12-18T03:28:30;101995.53;;;15.88;100.00
56402;BME280;42299;35.160;26.100;2022-12-18T03:30:02;101997.34;;;15.89;100.00
56402;BME280;42299;35.160;26.100;2022-12-18T03:31:31;101994.69;;;15.89;100.00
56402;BME280;42299;35.160;26.100;2022-12-18T03:33:02;101990.22;;;15.87;100.00
56402;BME280;42299;35.160;26.100;2022-12-18T03:34:30;101996.44;;;15.87;100.00
56402;BME280;42299;35.160;26.100;2022-12-18T03:35:56;101998.19;;;15.85;100.00
56402;BME280;42299;35.160;26.100;2022-12-18T03:37:19;101995.50;;;15.84;100.00
56402;BME280;42299;35.160;26.100;2022-12-18T03:38:40;101999.91;;;15.83;100.00
56402;BME280;42299;35.160;26.100;2022-12-18T03:40:05;101993.69;;;15.81;100.00
56402;BME280;42299;35.160;26.100;2022-12-18T03:41:31;101998.13;;;15.81;100.00
56402;BME280;42299;35.160;26.100;2022-12-18T03:43:24;101990.09;;;15.78;100.00
56402;BME280;42299;35.160;26.100;2022-12-18T03:44:57;101996.31;;;15.78;100.00
56402;BME280;42299;35.160;26.100;2022-12-18T03:46:27;102003.41;;;15.78;100.00
56402;BME280;42299;35.160;26.100;2022-12-18T03:47:58;102006.97;;;15.78;100.00
56402;BME280;42299;35.160;26.100;2022-12-18T03:49:33;102007.81;;;15.77;100.00
56402;BME280;42299;35.160;26.100;2022-12-18T03:51:02;102005.16;;;15.77;100.00
56402;BME280;42299;35.160;26.100;2022-12-18T03:52:28;102001.59;;;15.77;100.00
56402;BME280;42299;35.160;26.100;2022-12-18T03:53:56;102006.06;;;15.78;100.00
56402;BME280;42299;35.160;26.100;2022-12-18T03:55:25;101996.28;;;15.77;100.00
56402;BME280;42299;35.160;26.100;2022-12-18T03:56:58;102005.16;;;15.77;100.00
56402;BME280;42299;35.160;26.100;2022-12-18T03:58:23;102000.69;;;15.76;100.00
56402;BME280;42299;35.160;26.100;2022-12-18T03:59:57;102006.88;;;15.72;100.00
56402;BME280;42299;35.160;26.100;2022-12-18T04:01:39;102001.53;;;15.72;100.00
56402;BME280;42299;35.160;26.100;2022-12-18T04:03:04;102010.41;;;15.71;100.00
56402;BME280;42299;35.160;26.100;2022-12-18T04:04:34;101996.16;;;15.68;100.00
56402;BME280;42299;35.160;26.100;2022-12-18T04:05:59;102006.81;;;15.68;100.00
56402;BME280;42299;35.160;26.100;2022-12-18T04:07:22;102009.47;;;15.68;100.00
56402;BME280;42299;35.160;26.100;2022-12-18T04:08:45;102008.56;;;15.69;100.00
56402;BME280;42299;35.160;26.100;2022-12-18T04:10:12;102004.16;;;15.69;100.00
56402;BME280;42299;35.160;26.100;2022-12-18T04:11:35;102006.81;;;15.68;100.00
56402;BME280;42299;35.160;26.100;2022-12-18T04:13:00;102006.78;;;15.66;100.00
56402;BME280;42299;35.160;26.100;2022-12-18T04:14:22;102005.03;;;15.67;100.00
56402;BME280;42299;35.160;26.100;2022-12-18T04:15:48;102011.22;;;15.66;100.00
56402;BME280;42299;35.160;26.100;2022-12-18T04:17:11;102011.16;;;15.61;100.00
56402;BME280;42299;35.160;26.100;2022-12-18T04:18:34;102012.91;;;15.61;100.00
56402;BME280;42299;35.160;26.100;2022-12-18T04:19:56;102016.44;;;15.60;100.00
56402;BME280;42299;35.160;26.100;2022-12-18T04:21:19;102024.41;;;15.58;100.00
56402;BME280;42299;35.160;26.100;2022-12-18T04:22:42;102028.81;;;15.58;100.00
56402;BME280;42299;35.160;26.100;2022-12-18T04:24:05;102018.94;;;15.52;100.00
56402;BME280;42299;35.160;26.100;2022-12-18T04:25:28;102021.47;;;15.41;100.00
56402;BME280;42299;35.160;26.100;2022-12-18T04:27:06;102019.38;;;15.22;100.00
56402;BME280;42299;35.160;26.100;2022-12-18T04:28:35;102015.47;;;15.02;100.00
56402;BME280;42299;35.160;26.100;2022-12-18T04:29:58;102016.97;;;14.88;100.00
56402;BME280;42299;35.160;26.100;2022-12-18T04:31:21;102008.03;;;14.83;100.00
56402;BME280;42299;35.160;26.100;2022-12-18T04:32:46;102008.94;;;14.85;100.00
56402;BME280;42299;35.160;26.100;2022-12-18T04:34:07;102019.63;;;14.88;100.00
56402;BME280;42299;35.160;26.100;2022-12-18T04:35:35;102010.75;;;14.87;100.00
56402;BME280;42299;35.160;26.100;2022-12-18T04:36:57;102018.69;;;14.86;100.00
56402;BME280;42299;35.160;26.100;2022-12-18T04:38:20;102022.22;;;14.83;100.00
56402;BME280;42299;35.160;26.100;2022-12-18T04:39:50;102018.66;;;14.83;100.00
56402;BME280;42299;35.160;26.100;2022-12-18T04:41:24;102010.69;;;14.84;100.00
56402;BME280;42299;35.160;26.100;2022-12-18T04:42:47;102009.88;;;14.87;100.00
56402;BME280;42299;35.160;26.100;2022-12-18T04:44:09;102013.50;;;14.92;100.00
56402;BME280;42299;35.160;26.100;2022-12-18T04:45:32;102020.66;;;14.94;100.00
56402;BME280;42299;35.160;26.100;2022-12-18T04:46:53;102024.91;;;14.86;100.00
56402;BME280;42299;35.160;26.100;2022-12-18T04:48:17;102025.63;;;14.77;100.00
56402;BME280;42299;35.160;26.100;2022-12-18T04:49:38;102032.63;;;14.72;100.00
56402;BME280;42299;35.160;26.100;2022-12-18T04:51:01;102029.94;;;14.71;100.00
56402;BME280;42299;35.160;26.100;2022-12-18T04:52:22;102028.22;;;14.73;100.00
56402;BME280;42299;35.160;26.100;2022-12-18T04:53:45;102025.63;;;14.77;100.00
56402;BME280;42299;35.160;26.100;2022-12-18T04:55:06;102025.75;;;14.82;100.00
56402;BME280;42299;35.160;26.100;2022-12-18T04:56:31;102035.53;;;14.85;100.00
56402;BME280;42299;35.160;26.100;2022-12-18T04:57:53;102035.53;;;14.83;100.00
56402;BME280;42299;35.160;26.100;2022-12-18T04:59:15;102030.16;;;14.82;100.00
56402;BME280;42299;35.160;26.100;2022-12-18T05:00:37;102031.97;;;14.83;100.00
56402;BME280;42299;35.160;26.100;2022-12-18T05:01:58;102022.22;;;14.85;100.00
56402;BME280;42299;35.160;26.100;2022-12-18T05:03:22;102027.63;;;14.88;100.00
56402;BME280;42299;35.160;26.100;2022-12-18T05:04:43;102026.78;;;14.92;100.00
56402;BME280;42299;35.160;26.100;2022-12-18T05:06:06;102021.53;;;14.95;100.00
56402;BME280;42299;35.160;26.100;2022-12-18T05:07:28;102030.47;;;14.98;100.00
56402;BME280;42299;35.160;26.100;2022-12-18T05:08:50;102033.16;;;15.00;100.00
56402;BME280;42299;35.160;26.100;2022-12-18T05:10:12;102032.31;;;15.02;100.00
56402;BME280;42299;35.160;26.100;2022-12-18T05:11:37;102028.75;;;15.03;100.00
56402;BME280;42299;35.160;26.100;2022-12-18T05:12:59;102024.34;;;15.02;100.00
56402;BME280;42299;35.160;26.100;2022-12-18T05:14:20;102032.31;;;15.04;100.00
56402;BME280;42299;35.160;26.100;2022-12-18T05:15:51;102028.84;;;15.06;100.00
56402;BME280;42299;35.160;26.100;2022-12-18T05:17:12;102031.50;;;15.06;100.00
56402;BME280;42299;35.160;26.100;2022-12-18T05:18:36;102033.31;;;15.09;100.00
56402;BME280;42299;35.160;26.100;2022-12-18T05:19:58;102030.63;;;15.07;100.00
56402;BME280;42299;35.160;26.100;2022-12-18T05:21:20;102027.97;;;15.07;100.00
56402;BME280;42299;35.160;26.100;2022-12-18T05:22:42;102039.53;;;15.09;100.00
56402;BME280;42299;35.160;26.100;2022-12-18T05:24:05;102029.78;;;15.10;100.00
56402;BME280;42299;35.160;26.100;2022-12-18T05:25:26;102035.94;;;15.07;100.00
56402;BME280;42299;35.160;26.100;2022-12-18T05:26:48;102034.16;;;15.06;100.00
56402;BME280;42299;35.160;26.100;2022-12-18T05:28:11;102037.69;;;15.05;100.00
56402;BME280;42299;35.160;26.100;2022-12-18T05:29:32;102028.75;;;15.03;100.00
56402;BME280;42299;35.160;26.100;2022-12-18T05:30:57;102041.16;;;15.01;100.00
56402;BME280;42299;35.160;26.100;2022-12-18T05:32:18;102041.13;;;15.00;100.00
56402;BME280;42299;35.160;26.100;2022-12-18T05:33:42;102039.38;;;15.00;100.00
56402;BME280;42299;35.160;26.100;2022-12-18T05:35:07;102039.28;;;14.97;100.00
56402;BME280;42299;35.160;26.100;2022-12-18T05:36:29;102034.81;;;14.93;100.00
56402;BME280;42299;35.160;26.100;2022-12-18T05:37:51;102042.78;;;14.93;100.00
56402;BME280;42299;35.160;26.100;2022-12-18T05:39:12;102044.63;;;14.97;100.00
56402;BME280;42299;35.160;26.100;2022-12-18T05:40:35;102034.94;;;15.01;100.00
56402;BME280;42299;35.160;26.100;2022-12-18T05:41:57;102042.06;;;15.03;100.00
56402;BME280;42299;35.160;26.100;2022-12-18T05:43:20;102046.53;;;15.04;100.00
56402;BME280;42299;35.160;26.100;2022-12-18T05:44:43;102058.03;;;15.03;100.00
56402;BME280;42299;35.160;26.100;2022-12-18T05:46:07;102048.22;;;14.99;100.00
56402;BME280;42299;35.160;26.100;2022-12-18T05:47:29;102047.28;;;14.97;100.00
56402;BME280;42299;35.160;26.100;2022-12-18T05:48:52;102039.28;;;14.97;100.00
56402;BME280;42299;35.160;26.100;2022-12-18T05:50:15;102047.31;;;14.99;100.00
56402;BME280;42299;35.160;26.100;2022-12-18T05:51:37;102046.41;;;14.98;100.00
56402;BME280;42299;35.160;26.100;2022-12-18T05:52:59;102049.06;;;14.98;100.00
56402;BME280;42299;35.160;26.100;2022-12-18T05:54:21;102052.63;;;14.99;100.00
56402;BME280;42299;35.160;26.100;2022-12-18T05:55:44;102056.16;;;14.98;100.00
56402;BME280;42299;35.160;26.100;2022-12-18T05:57:05;102059.78;;;15.01;100.00
56402;BME280;42299;35.160;26.100;2022-12-18T05:58:28;102048.34;;;15.07;100.00
56402;BME280;42299;35.160;26.100;2022-12-18T05:59:50;102058.03;;;15.03;100.00
56402;BME280;42299;35.160;26.100;2022-12-18T06:01:14;102055.44;;;15.06;100.00
56402;BME280;42299;35.160;26.100;2022-12-18T06:02:37;102057.28;;;15.10;100.00
56402;BME280;42299;35.160;26.100;2022-12-18T06:04:00;102057.38;;;15.16;100.00
56402;BME280;42299;35.160;26.100;2022-12-18T06:05:23;102061.00;;;15.20;100.00
56402;BME280;42299;35.160;26.100;2022-12-18T06:06:44;102057.50;;;15.23;100.00
56402;BME280;42299;35.160;26.100;2022-12-18T06:08:07;102062.91;;;15.27;100.00
56402;BME280;42299;35.160;26.100;2022-12-18T06:09:29;102060.28;;;15.30;100.00
56402;BME280;42299;35.160;26.100;2022-12-18T06:10:53;102062.13;;;15.34;100.00
56402;BME280;42299;35.160;26.100;2022-12-18T06:12:14;102060.38;;;15.36;100.00
56402;BME280;42299;35.160;26.100;2022-12-18T06:13:39;102063.06;;;15.38;100.00
56402;BME280;42299;35.160;26.100;2022-12-18T06:15:00;102062.25;;;15.40;100.00
56402;BME280;42299;35.160;26.100;2022-12-18T06:16:22;102067.59;;;15.43;100.00
56402;BME280;42299;35.160;26.100;2022-12-18T06:17:44;102070.34;;;15.49;100.00
56402;BME280;42299;35.160;26.100;2022-12-18T06:19:07;102076.81;;;15.62;100.00
56402;BME280;42299;35.160;26.100;2022-12-18T06:20:31;102083.28;;;15.78;100.00
56402;BME280;42299;35.160;26.100;2022-12-18T06:21:54;102082.66;;;15.94;100.00
56402;BME280;42299;35.160;26.100;2022-12-18T06:23:18;102093.59;;;16.14;100.00
56402;BME280;42299;35.160;26.100;2022-12-18T06:24:40;102092.06;;;16.31;100.00
56402;BME280;42299;35.160;26.100;2022-12-18T06:26:06;102101.16;;;16.48;100.00
56402;BME280;42299;35.160;26.100;2022-12-18T06:27:27;102099.63;;;16.64;100.00
56402;BME280;42299;35.160;26.100;2022-12-18T06:28:50;102094.47;;;16.79;100.00
56402;BME280;42299;35.160;26.100;2022-12-18T06:30:12;102094.63;;;16.91;100.00
56402;BME280;42299;35.160;26.100;2022-12-18T06:31:34;102094.75;;;17.05;100.00
56402;BME280;42299;35.160;26.100;2022-12-18T06:32:57;102096.69;;;17.18;100.00
56402;BME280;42299;35.160;26.100;2022-12-18T06:34:20;102101.25;;;17.31;100.00
56402;BME280;42299;35.160;26.100;2022-12-18T06:35:45;102102.25;;;17.42;100.00
56402;BME280;42299;35.160;26.100;2022-12-18T06:37:06;102106.81;;;17.56;100.00
56402;BME280;42299;35.160;26.100;2022-12-18T06:38:28;102108.69;;;17.66;100.00
56402;BME280;42299;35.160;26.100;2022-12-18T06:39:51;102109.69;;;17.77;100.00
56402;BME280;42299;35.160;26.100;2022-12-18T06:41:15;102105.31;;;17.85;100.00
56402;BME280;42299;35.160;26.100;2022-12-18T06:42:38;102109.81;;;17.95;100.00
56402;BME280;42299;35.160;26.100;2022-12-18T06:44:00;102110.78;;;18.06;100.00
56402;BME280;42299;35.160;26.100;2022-12-18T06:45:22;102106.38;;;18.14;100.00
56402;BME280;42299;35.160;26.100;2022-12-18T06:46:44;102112.69;;;18.24;100.00
56402;BME280;42299;35.160;26.100;2022-12-18T06:48:06;102100.25;;;18.33;100.00
56402;BME280;42299;35.160;26.100;2022-12-18T06:49:30;102103.88;;;18.45;100.00
56402;BME280;42299;35.160;26.100;2022-12-18T06:50:51;102103.91;;;18.54;100.00
56402;BME280;42299;35.160;26.100;2022-12-18T06:52:16;102099.53;;;18.65;100.00
56402;BME280;42299;35.160;26.100;2022-12-18T06:53:39;102101.38;;;18.77;100.00
56402;BME280;42299;35.160;26.100;2022-12-18T06:55:00;102102.28;;;18.86;100.00
56402;BME280;42299;35.160;26.100;2022-12-18T06:56:23;102112.16;;;18.96;100.00
56402;BME280;42299;35.160;26.100;2022-12-18T06:57:44;102100.53;;;19.03;100.00
56402;BME280;42299;35.160;26.100;2022-12-18T06:59:07;102107.69;;;19.10;100.00
56402;BME280;42299;35.160;26.100;2022-12-18T07:00:29;102099.69;;;19.18;100.00
56402;BME280;42299;35.160;26.100;2022-12-18T07:01:52;102098.81;;;19.27;100.00
56402;BME280;42299;35.160;26.100;2022-12-18T07:03:14;102103.28;;;19.37;100.00
56402;BME280;42299;35.160;26.100;2022-12-18T07:04:40;102103.28;;;19.44;100.00
56402;BME280;42299;35.160;26.100;2022-12-18T07:06:03;102101.56;;;19.53;100.00
56402;BME280;42299;35.160;26.100;2022-12-18T07:07:24;102096.19;;;19.57;100.00
56402;BME280;42299;35.160;26.100;2022-12-18T07:08:48;102102.44;;;19.64;100.00
56402;BME280;42299;35.160;26.100;2022-12-18T07:10:11;102096.16;;;19.69;100.00
56402;BME280;42299;35.160;26.100;2022-12-18T07:11:32;102101.56;;;19.75;100.00